Time;durP1;ratioP1;P1;durP2;ratioP2;P2;SDS_P1;SDS_P2;PMS_P1;PMS_P2;Temp;Humidity;BMP_temperature;BMP_pressure;BME280_temperature;BME280_humidity;BME280_pressure;Samples;Min_cycle;Max_cycle;Signal;HPM_P1;HPM_P2
2022/04/06 04:05:01;;;;;;;10.23;6.60;;;;;;;9.06;69.64;99987.94;5606394;31;76125;-56
2022/04/06 04:08:03;;;;;;;10.55;6.87;;;;;;;9.06;69.64;99987.94;5583872;31;34323;-57
2022/04/06 04:11:06;;;;;;;10.68;7.10;;;;;;;8.56;71.07;99989.09;5583618;31;34134;-57
2022/04/06 04:14:08;;;;;;;10.73;7.55;;;;;;;8.63;71.54;99984.22;5583841;32;33544;-57
2022/04/06 04:17:11;;;;;;;10.85;7.32;;;;;;;8.81;71.03;99988.94;5583537;31;33619;-57
2022/04/06 04:20:13;;;;;;;11.65;7.07;;;;;;;8.83;71.01;99994.00;5583811;31;33587;-57
2022/04/06 04:23:15;;;;;;;9.80;6.37;;;;;;;9.00;70.58;99983.69;5583498;31;33737;-57
2022/04/06 04:26:18;;;;;;;9.63;7.28;;;;;;;9.17;69.97;99992.16;5582791;32;33258;-57
2022/04/06 04:29:20;;;;;;;9.63;6.72;;;;;;;9.29;69.67;99994.44;5563957;32;34258;-57
2022/04/06 04:32:22;;;;;;;10.88;6.87;;;;;;;9.29;69.75;99994.44;5563930;32;34239;-57
2022/04/06 04:35:24;;;;;;;9.23;6.72;;;;;;;9.40;69.61;99981.75;5563852;32;34168;-57
2022/04/06 04:38:27;;;;;;;11.20;7.28;;;;;;;9.49;69.17;99992.66;5564101;32;34328;-57
2022/04/06 04:41:29;;;;;;;10.85;7.37;;;;;;;9.51;69.39;99993.19;5581347;31;33734;-57
2022/04/06 04:44:32;;;;;;;10.80;8.20;;;;;;;9.57;69.40;100002.75;5577243;31;33701;-57
2022/04/06 04:47:34;;;;;;;9.98;7.35;;;;;;;9.65;68.79;100002.94;5579540;31;33533;-57
2022/04/06 04:50:36;;;;;;;13.18;8.55;;;;;;;9.80;68.14;100015.38;5569013;32;34325;-57
2022/04/06 04:53:38;;;;;;;14.57;9.18;;;;;;;9.81;67.69;100008.94;5570792;32;33318;-57
2022/04/06 04:56:42;;;;;;;14.30;8.20;;;;;;;9.85;67.36;100017.19;5581805;31;33635;-57
2022/04/06 04:59:44;;;;;;;14.40;8.65;;;;;;;9.83;67.73;100006.78;5580673;31;33700;-57
2022/04/06 05:02:47;;;;;;;13.88;9.45;;;;;;;9.74;68.12;100018.41;5582738;32;34359;-57
2022/04/06 05:05:51;;;;;;;16.42;9.75;;;;;;;9.73;68.16;100016.78;5582783;32;33699;-57
2022/04/06 05:08:59;;;;;;;16.00;10.40;;;;;;;9.67;69.08;100017.91;5582785;32;34266;-57
2022/04/06 05:12:01;;;;;;;15.45;9.88;;;;;;;9.73;68.86;100025.59;5582598;31;33630;-57
2022/04/06 05:15:05;;;;;;;17.33;10.25;;;;;;;9.79;68.60;100026.38;5575437;32;33759;-57
2022/04/06 05:18:07;;;;;;;17.40;10.48;;;;;;;9.83;68.47;100025.53;5569920;32;33597;-57
2022/04/06 05:21:09;;;;;;;11.90;8.13;;;;;;;9.88;68.28;100025.47;5569767;32;34331;-57
2022/04/06 05:24:11;;;;;;;14.40;9.52;;;;;;;10.02;67.87;100024.78;5569711;32;34215;-57
2022/04/06 05:27:15;;;;;;;15.77;10.40;;;;;;;10.08;68.32;100029.00;5561419;32;33690;-57
2022/04/06 05:30:19;;;;;;;15.85;9.30;;;;;;;10.06;68.64;100026.59;5568274;32;34292;-57
2022/04/06 05:33:21;;;;;;;19.35;9.10;;;;;;;10.03;69.00;100026.38;5568130;32;33688;-57
2022/04/06 05:36:24;;;;;;;14.27;9.77;;;;;;;10.11;69.21;100034.59;5568425;32;34241;-57
2022/04/06 05:39:27;;;;;;;12.88;8.98;;;;;;;10.21;68.88;100031.00;5569123;32;34426;-57
2022/04/06 05:42:29;;;;;;;15.45;8.80;;;;;;;10.40;67.81;100035.62;5569294;32;33696;-57
2022/04/06 05:45:31;;;;;;;16.45;9.50;;;;;;;10.47;68.24;100041.44;5569440;32;34350;-57
2022/04/06 05:48:38;;;;;;;19.65;9.40;;;;;;;10.62;67.92;100041.22;5568437;32;33557;-57
2022/04/06 05:51:41;;;;;;;15.23;8.82;;;;;;;10.68;67.69;100050.81;5569466;32;33316;-57
2022/04/06 05:54:43;;;;;;;15.88;9.02;;;;;;;10.56;68.39;100045.06;5563325;32;34083;-57
2022/04/06 05:57:45;;;;;;;14.40;9.15;;;;;;;10.62;68.00;100049.28;5560771;32;33883;-57
2022/04/06 06:00:48;;;;;;;13.55;8.93;;;;;;;10.74;68.36;100052.34;5549338;32;33639;-57
2022/04/06 06:03:50;;;;;;;15.55;8.10;;;;;;;10.72;68.76;100051.81;5561097;32;33690;-57
2022/04/06 06:06:52;;;;;;;17.02;8.52;;;;;;;10.95;68.03;100050.16;5566856;32;33774;-57
2022/04/06 06:09:55;;;;;;;15.75;7.60;;;;;;;11.09;67.97;100052.09;5568740;32;33604;-57
2022/04/06 06:12:58;;;;;;;13.05;8.52;;;;;;;11.18;67.39;100056.53;5568920;32;33703;-57
2022/04/06 06:16:03;;;;;;;12.23;7.35;;;;;;;11.17;67.33;100059.50;5568753;32;33234;-57
2022/04/06 06:19:06;;;;;;;14.13;8.48;;;;;;;11.27;67.74;100065.50;5568459;32;33337;-57
2022/04/06 06:22:08;;;;;;;16.83;8.05;;;;;;;11.38;67.23;100065.34;5568270;32;34344;-57
2022/04/06 06:25:10;;;;;;;15.82;7.97;;;;;;;11.44;66.15;100064.97;5568255;32;33674;-57
2022/04/06 06:28:12;;;;;;;13.55;7.93;;;;;;;11.49;65.24;100066.78;5567063;31;33573;-57
2022/04/06 06:31:15;;;;;;;14.63;8.13;;;;;;;11.56;65.57;100069.09;5568493;32;33776;-57
2022/04/06 06:34:18;;;;;;;9.52;7.15;;;;;;;11.69;65.26;100069.12;5568032;32;33754;-58
2022/04/06 06:37:20;;;;;;;12.23;7.10;;;;;;;11.79;65.58;100064.66;5568149;32;34342;-57
2022/04/06 06:40:24;;;;;;;10.77;7.12;;;;;;;12.04;63.94;100061.56;5567692;32;33639;-57
2022/04/06 06:43:26;;;;;;;15.07;7.72;;;;;;;12.30;62.74;100066.44;5567094;32;33587;-57
2022/04/06 06:46:32;;;;;;;14.68;8.40;;;;;;;12.45;63.38;100056.19;5568318;32;33771;-57
2022/04/06 06:49:37;;;;;;;12.93;8.13;;;;;;;12.33;62.77;100066.63;5567949;32;33779;-57
2022/04/06 06:52:39;;;;;;;15.60;8.38;;;;;;;12.33;63.83;100055.09;5568156;32;33691;-57
2022/04/06 06:55:48;;;;;;;13.93;8.60;;;;;;;12.42;62.19;100056.78;5568187;32;34291;-57
2022/04/06 06:58:50;;;;;;;16.45;10.43;;;;;;;12.52;61.94;100055.78;5567858;32;34252;-57
2022/04/06 07:01:52;;;;;;;17.33;11.60;;;;;;;12.59;61.29;100056.16;5567962;32;33663;-57
2022/04/06 07:04:55;;;;;;;24.08;16.23;;;;;;;12.67;61.62;100055.44;5568212;32;33567;-58
2022/04/06 07:08:02;;;;;;;33.47;22.25;;;;;;;12.84;62.57;100052.12;5567635;32;33675;-57
2022/04/06 07:11:04;;;;;;;36.47;20.30;;;;;;;13.11;60.55;100051.25;5565032;32;33586;-57
2022/04/06 07:14:07;;;;;;;32.28;18.62;;;;;;;13.40;59.77;100052.75;5566978;32;33556;-57
2022/04/06 07:17:09;;;;;;;25.80;16.75;;;;;;;13.50;59.09;100049.00;5565772;32;32337;-57
2022/04/06 07:20:11;;;;;;;19.85;14.43;;;;;;;13.66;58.83;100049.41;5567810;32;33533;-57
2022/04/06 07:23:14;;;;;;;20.10;11.93;;;;;;;13.75;58.33;100048.38;5556963;32;32198;-57
2022/04/06 07:26:19;;;;;;;20.92;13.13;;;;;;;13.72;59.81;100046.28;5568175;31;33866;-57
2022/04/06 07:29:21;;;;;;;18.67;12.65;;;;;;;13.92;57.06;100052.25;5567543;32;33737;-57
2022/04/06 07:32:23;;;;;;;16.60;11.75;;;;;;;13.90;56.22;100049.84;5568039;32;33627;-58
2022/04/06 07:35:26;;;;;;;16.15;11.20;;;;;;;13.89;57.12;100058.25;5564678;32;34270;-57
2022/04/06 07:38:29;;;;;;;14.73;10.85;;;;;;;14.02;57.14;100050.06;5558983;32;33606;-58
2022/04/06 07:41:32;;;;;;;13.73;10.43;;;;;;;14.20;55.15;100052.81;5566975;32;33682;-57
2022/04/06 07:44:34;;;;;;;17.45;9.60;;;;;;;14.34;54.68;100053.53;5556698;32;33744;-57
2022/04/06 07:47:40;;;;;;;12.30;8.27;;;;;;;14.25;54.90;100055.41;5566038;32;33736;-57
2022/04/06 07:50:42;;;;;;;11.38;8.73;;;;;;;14.22;54.42;100048.72;5567302;32;33723;-57
2022/04/06 07:53:44;;;;;;;13.18;9.35;;;;;;;14.31;54.83;100054.16;5566527;32;34237;-57
2022/04/06 07:56:53;;;;;;;23.20;9.35;;;;;;;14.40;54.84;100054.94;5562444;32;34270;-57
2022/04/06 07:59:56;;;;;;;15.20;10.25;;;;;;;14.59;55.11;100053.91;5548969;32;33304;-58
2022/04/06 08:02:59;;;;;;;14.68;8.57;;;;;;;14.54;54.59;100055.66;5564868;32;33678;-58
2022/04/06 08:06:03;;;;;;;14.25;8.27;;;;;;;14.51;54.41;100061.69;5565614;32;33274;-57
2022/04/06 08:09:06;;;;;;;12.35;8.45;;;;;;;14.66;54.18;100055.03;5566738;32;33607;-57
2022/04/06 08:12:09;;;;;;;10.52;7.10;;;;;;;14.72;53.47;100047.59;5566645;32;34011;-57
2022/04/06 08:15:12;;;;;;;12.95;7.68;;;;;;;14.72;56.50;100053.00;5566733;32;34410;-57
2022/04/06 08:18:15;;;;;;;9.82;7.45;;;;;;;14.89;53.75;100050.31;5560729;32;33736;-57
2022/04/06 08:21:17;;;;;;;11.73;8.57;;;;;;;14.84;52.97;100053.16;5563487;32;33822;-57
2022/04/06 08:24:20;;;;;;;9.10;6.50;;;;;;;14.77;51.96;100052.84;5563847;32;33436;-57
2022/04/06 08:27:22;;;;;;;12.88;7.53;;;;;;;14.71;52.64;100056.81;5566496;32;33628;-57
2022/04/06 08:30:30;;;;;;;10.98;6.62;;;;;;;14.76;52.94;100053.94;5564493;32;33458;-57
2022/04/06 08:33:32;;;;;;;11.57;7.28;;;;;;;14.98;54.46;100051.09;5563646;32;34243;-57
2022/04/06 08:36:36;;;;;;;10.18;7.55;;;;;;;15.07;53.66;100044.94;5564395;32;34910;-58
2022/04/06 08:39:38;;;;;;;11.25;7.62;;;;;;;15.16;52.71;100051.88;5566933;32;33710;-58
2022/04/06 08:43:01;;;;;;;11.68;7.12;;;;;;;15.31;51.67;100045.22;5565533;32;34364;-58
2022/04/06 08:46:03;;;;;;;9.40;6.90;;;;;;;15.54;52.17;100050.44;5564512;32;33582;-58
2022/04/06 08:49:06;;;;;;;10.38;7.93;;;;;;;15.77;51.52;100053.75;5563616;32;33731;-57
2022/04/06 08:52:10;;;;;;;11.52;6.90;;;;;;;15.69;51.94;100055.34;5567030;32;33255;-57
2022/04/06 08:55:13;;;;;;;10.00;6.62;;;;;;;15.66;51.92;100059.50;5558340;32;34140;-57
2022/04/06 08:58:15;;;;;;;8.32;6.57;;;;;;;15.63;52.83;100054.69;5568861;32;32921;-57
2022/04/06 09:01:21;;;;;;;9.48;6.87;;;;;;;15.77;53.24;100043.72;5566494;32;33708;-58
2022/04/06 09:04:24;;;;;;;14.80;7.80;;;;;;;15.95;49.57;100044.44;5564309;32;33687;-58
2022/04/06 09:07:38;;;;;;;12.65;7.20;;;;;;;15.79;50.34;100041.47;5565383;32;33146;-57
2022/04/06 09:10:42;;;;;;;10.77;6.72;;;;;;;15.73;50.21;100040.09;5568345;32;33666;-58
2022/04/06 09:13:47;;;;;;;9.38;6.47;;;;;;;15.65;49.73;100032.75;5564076;32;33848;-57
2022/04/06 09:17:00;;;;;;;7.78;6.32;;;;;;;15.74;51.76;100042.44;5566685;32;33769;-58
2022/04/06 09:20:03;;;;;;;10.88;6.95;;;;;;;15.86;50.27;100030.97;5567661;32;33753;-58
2022/04/06 09:23:14;;;;;;;10.43;7.07;;;;;;;15.91;50.89;100030.78;5567743;32;33650;-58
2022/04/06 09:26:21;;;;;;;11.90;8.35;;;;;;;16.19;49.83;100027.63;5556403;32;34323;-58
2022/04/06 09:29:23;;;;;;;9.90;7.65;;;;;;;16.11;49.79;100023.84;5560721;32;33226;-58
2022/04/06 09:32:26;;;;;;;13.43;7.85;;;;;;;16.12;50.05;100021.94;5569032;32;33620;-57
2022/04/06 09:35:36;;;;;;;11.02;8.27;;;;;;;16.05;50.11;100025.16;5566603;32;33318;-58
2022/04/06 09:38:41;;;;;;;11.60;7.43;;;;;;;16.09;49.46;100022.59;5567319;32;33796;-58
2022/04/06 09:41:59;;;;;;;15.85;7.78;;;;;;;16.18;50.94;100018.72;5564582;32;34233;-58
2022/04/06 09:48:23;;;;;;;12.52;7.95;;;;;;;16.41;49.88;100008.41;5567178;32;33992;-58
2022/04/06 09:51:27;;;;;;;11.38;7.85;;;;;;;16.37;49.09;99995.88;5566568;32;33744;-57
2022/04/06 09:54:32;;;;;;;10.68;8.20;;;;;;;16.41;50.13;99988.69;5567065;32;33686;-57
2022/04/06 09:57:52;;;;;;;11.75;8.85;;;;;;;16.56;51.53;99992.75;5551749;32;33761;-57
2022/04/06 10:00:54;;;;;;;12.50;7.93;;;;;;;16.72;49.86;99988.31;5566955;32;34214;-57
2022/04/06 10:04:02;;;;;;;9.57;7.53;;;;;;;16.77;50.07;99974.59;5566282;32;33695;-57
2022/04/06 10:07:06;;;;;;;11.05;8.27;;;;;;;16.93;50.57;99976.72;5563187;32;33303;-58
2022/04/06 10:10:10;;;;;;;10.10;8.85;;;;;;;16.97;49.82;99977.63;5566724;32;34336;-58
2022/04/06 10:13:16;;;;;;;;;;;;;;;16.98;48.84;99969.16;5569148;32;33962;-58
2022/04/06 10:16:39;;;;;;;10.10;7.60;;;;;;;16.91;50.73;99966.97;5565030;31;33382;-58
2022/04/06 10:19:47;;;;;;;10.32;7.90;;;;;;;17.01;49.31;99960.38;5566328;32;34031;-58
2022/04/06 10:22:55;;;;;;;11.73;7.05;;;;;;;17.19;48.64;99952.09;5567001;32;33697;-57
2022/04/06 10:26:42;;;;;;;9.63;7.57;;;;;;;17.34;49.60;99956.84;5567648;32;33700;-58
2022/04/06 10:30:12;;;;;;;10.55;7.20;;;;;;;17.37;47.24;99948.84;5559900;32;33499;-58
2022/04/06 10:33:20;;;;;;;10.77;7.18;;;;;;;17.30;48.02;99947.81;5567432;32;33628;-58
2022/04/06 10:36:26;;;;;;;10.23;8.00;;;;;;;17.22;47.15;99943.25;5562006;32;33765;-58
2022/04/06 10:39:29;;;;;;;11.20;7.12;;;;;;;17.17;45.62;99940.78;5562288;32;34426;-58
2022/04/06 10:42:33;;;;;;;12.05;6.35;;;;;;;17.20;47.77;99935.50;5565204;32;33773;-58
2022/04/06 10:45:36;;;;;;;8.55;5.53;;;;;;;17.13;46.08;99930.63;5559034;32;34321;-57
2022/04/06 10:48:58;;;;;;;9.35;6.20;;;;;;;17.19;47.67;99925.00;5565161;32;33579;-58
2022/04/06 10:52:25;;;;;;;9.27;6.78;;;;;;;17.22;45.39;99927.00;5563880;32;33727;-58
2022/04/06 10:55:29;;;;;;;8.85;6.03;;;;;;;17.16;44.66;99933.78;5568155;32;34090;-57
2022/04/06 10:58:56;;;;;;;11.73;7.10;;;;;;;17.15;44.67;99924.84;5564268;32;34346;-58
2022/04/06 11:02:21;;;;;;;12.40;6.05;;;;;;;17.17;44.26;99916.41;5568212;32;33639;-57
2022/04/06 11:05:45;;;;;;;13.27;6.93;;;;;;;17.24;47.15;99919.34;5568264;32;33832;-58
2022/04/06 11:12:24;;;;;;;10.70;6.95;;;;;;;17.22;43.85;99902.63;5567457;32;33657;-57
2022/04/06 11:15:37;;;;;;;8.55;6.28;;;;;;;17.23;45.16;99901.53;5567487;32;33721;-58
2022/04/06 11:18:47;;;;;;;10.35;7.25;;;;;;;17.28;45.36;99896.66;5567838;32;33743;-57
2022/04/06 11:21:55;;;;;;;9.80;6.80;;;;;;;17.45;43.10;99898.41;5567052;32;33623;-57
2022/04/06 11:24:59;;;;;;;10.63;7.37;;;;;;;17.49;45.32;99885.75;5567591;32;33608;-57
2022/04/06 11:28:07;;;;;;;9.70;7.85;;;;;;;17.54;43.24;99884.72;5566130;32;33810;-58
2022/04/06 11:31:09;;;;;;;11.45;7.50;;;;;;;17.56;44.25;99875.12;5567500;32;34052;-57
2022/04/06 11:34:29;;;;;;;10.50;8.05;;;;;;;17.61;44.25;99874.09;5566747;32;33661;-58
2022/04/06 11:37:31;;;;;;;14.35;10.27;;;;;;;17.69;45.09;99864.28;5566899;32;33914;-57
2022/04/06 11:40:39;;;;;;;17.15;9.80;;;;;;;17.67;43.35;99863.84;5567050;32;33686;-58
2022/04/06 11:43:42;;;;;;;13.00;9.43;;;;;;;17.64;43.79;99861.81;5565829;32;33796;-58
2022/04/06 11:46:46;;;;;;;14.98;10.48;;;;;;;17.54;44.93;99855.69;5565014;32;33360;-58
2022/04/06 11:49:48;;;;;;;14.32;10.55;;;;;;;17.56;46.10;99850.75;5556661;32;33774;-58
2022/04/06 11:52:51;;;;;;;14.65;9.68;;;;;;;17.66;44.98;99840.56;5564190;32;34343;-58
2022/04/06 11:55:54;;;;;;;15.55;11.00;;;;;;;17.86;45.94;99833.47;5564122;32;33712;-58
2022/04/06 11:58:57;;;;;;;14.52;10.70;;;;;;;17.91;44.20;99828.56;5548069;32;33283;-58
2022/04/06 12:01:59;;;;;;;14.52;11.30;;;;;;;18.01;43.49;99824.59;5557341;32;33786;-57
2022/04/06 12:05:04;;;;;;;14.35;10.73;;;;;;;18.07;43.28;99818.59;5556904;32;33750;-57
2022/04/06 12:08:09;;;;;;;16.87;11.40;;;;;;;18.16;45.43;99813.03;5551968;32;33582;-57
2022/04/06 12:11:11;;;;;;;15.02;11.43;;;;;;;18.28;44.18;99804.84;5558830;32;34605;-57
2022/04/06 12:14:14;;;;;;;14.77;9.35;;;;;;;18.24;43.19;99793.09;5556384;32;34257;-57
2022/04/06 12:17:17;;;;;;;14.63;10.65;;;;;;;18.22;43.43;99791.88;5562298;32;33729;-58
2022/04/06 12:20:22;;;;;;;12.45;9.40;;;;;;;18.23;43.08;99779.87;5565848;32;33770;-57
2022/04/06 12:23:26;;;;;;;15.57;11.50;;;;;;;18.25;42.92;99766.78;5563376;32;33767;-57
2022/04/06 12:26:39;;;;;;;11.95;8.55;;;;;;;18.35;41.76;99776.34;5569196;31;33998;-57
2022/04/06 12:30:08;;;;;;;11.50;9.27;;;;;;;18.32;43.45;99766.97;5569715;32;34552;-57
2022/04/06 12:33:10;;;;;;;11.23;9.75;;;;;;;18.36;42.48;99756.19;5566760;32;34456;-57
2022/04/06 12:36:33;;;;;;;13.43;10.85;;;;;;;18.46;41.76;99747.53;5551432;32;33687;-57
2022/04/06 12:39:47;;;;;;;12.68;10.38;;;;;;;18.52;42.64;99746.94;5550554;32;33995;-57
2022/04/06 12:42:50;;;;;;;11.00;8.90;;;;;;;18.54;41.39;99746.56;5550015;32;34346;-57
2022/04/06 12:45:53;;;;;;;9.90;8.27;;;;;;;18.57;42.08;99742.37;5548951;32;33684;-57
2022/04/06 12:49:16;;;;;;;13.18;10.02;;;;;;;18.60;42.59;99734.34;5550155;32;33967;-57
2022/04/06 12:52:23;;;;;;;15.20;10.43;;;;;;;18.62;42.01;99723.91;5550502;32;33850;-58
2022/04/06 12:55:26;;;;;;;12.70;9.85;;;;;;;18.66;41.75;99724.00;5549854;32;33943;-58
2022/04/06 12:58:28;;;;;;;9.98;8.88;;;;;;;18.71;41.33;99718.34;5552342;32;33754;-57
2022/04/06 13:01:30;;;;;;;10.50;7.93;;;;;;;18.70;40.67;99712.09;5569645;32;33943;-57
2022/04/06 13:04:37;;;;;;;9.40;8.10;;;;;;;18.83;44.22;99709.31;5569804;32;34320;-57
2022/04/06 13:07:45;;;;;;;11.02;7.72;;;;;;;18.78;41.01;99696.81;5569569;32;33323;-57
2022/04/06 13:10:47;;;;;;;10.10;6.57;;;;;;;18.77;39.37;99695.22;5569420;32;34320;-58
2022/04/06 13:13:49;;;;;;;9.40;7.50;;;;;;;18.76;40.80;99683.56;5569648;32;34543;-57
2022/04/06 13:16:51;;;;;;;7.90;6.10;;;;;;;18.80;38.64;99682.88;5569378;32;34229;-57
2022/04/06 13:19:54;;;;;;;12.23;7.57;;;;;;;18.89;41.72;99676.09;5568189;32;33752;-57
2022/04/06 13:22:59;;;;;;;9.80;6.87;;;;;;;18.86;38.99;99676.03;5569621;32;33791;-57
2022/04/06 13:26:19;;;;;;;10.13;7.47;;;;;;;18.85;39.03;99669.03;5569569;32;33812;-57
2022/04/06 13:29:22;;;;;;;10.75;7.03;;;;;;;18.91;38.56;99664.91;5569500;32;33273;-58
2022/04/06 13:32:24;;;;;;;11.45;6.72;;;;;;;18.97;40.41;99661.56;5569894;32;33742;-57
2022/04/06 13:35:26;;;;;;;9.30;7.35;;;;;;;19.02;39.70;99653.13;5568439;32;33806;-57
2022/04/06 13:38:29;;;;;;;7.65;5.75;;;;;;;19.02;38.78;99655.84;5567928;32;33649;-57
2022/04/06 13:41:31;;;;;;;9.20;7.28;;;;;;;19.09;41.10;99644.34;5569520;32;34389;-58
2022/04/06 13:44:34;;;;;;;9.77;7.10;;;;;;;19.15;39.05;99637.50;5569407;32;33924;-57
2022/04/06 13:47:36;;;;;;;11.20;6.55;;;;;;;19.14;39.43;99635.94;5569221;32;33736;-56
2022/04/06 13:50:39;;;;;;;11.43;7.45;;;;;;;19.18;39.86;99623.22;5569529;32;34787;-57
2022/04/06 13:53:41;;;;;;;14.68;7.45;;;;;;;19.22;39.81;99612.41;5569614;32;33977;-57
2022/04/06 13:56:45;;;;;;;10.15;6.80;;;;;;;19.20;40.27;99612.78;5569030;32;33650;-57
2022/04/06 13:59:47;;;;;;;11.90;7.87;;;;;;;19.21;42.21;99599.97;5569269;32;33794;-57
2022/04/06 14:02:51;;;;;;;17.20;7.68;;;;;;;19.18;40.01;99600.69;5569266;32;34356;-57
2022/04/06 14:05:55;;;;;;;10.63;6.43;;;;;;;19.22;40.46;99591.44;5569335;32;33417;-57
2022/04/06 14:08:58;;;;;;;9.48;6.05;;;;;;;19.20;40.83;99590.22;5568906;32;33389;-57
2022/04/06 14:12:02;;;;;;;19.27;8.38;;;;;;;19.19;42.50;99584.00;5569223;32;33661;-57
2022/04/06 14:15:05;;;;;;;10.13;8.10;;;;;;;19.25;40.43;99574.44;5568875;32;34370;-57
2022/04/06 14:18:07;;;;;;;13.48;9.35;;;;;;;19.31;41.44;99576.88;5569159;32;33662;-57
2022/04/06 14:21:13;;;;;;;16.62;9.52;;;;;;;19.22;41.47;99568.94;5568886;32;34283;-57
2022/04/06 14:24:18;;;;;;;13.15;9.45;;;;;;;19.25;41.48;99565.50;5569292;32;33370;-57
2022/04/06 14:27:20;;;;;;;11.40;8.40;;;;;;;19.21;40.43;99553.78;5568987;32;33634;-57
2022/04/06 14:30:23;;;;;;;12.70;9.10;;;;;;;19.20;40.25;99557.63;5569028;32;33685;-58
2022/04/06 14:33:25;;;;;;;13.90;9.43;;;;;;;19.24;39.48;99553.84;5568971;32;33503;-57
2022/04/06 14:36:28;;;;;;;11.18;8.32;;;;;;;19.24;38.62;99556.56;5567232;32;34344;-57
2022/04/06 14:39:30;;;;;;;15.30;9.05;;;;;;;19.21;39.19;99543.69;5549489;32;34270;-57
2022/04/06 14:42:32;;;;;;;11.20;7.75;;;;;;;19.24;38.97;99539.50;5549730;32;33742;-57
2022/04/06 14:45:35;;;;;;;10.45;8.45;;;;;;;19.23;39.10;99530.53;5549904;32;33234;-57
2022/04/06 14:48:37;;;;;;;9.93;6.70;;;;;;;19.30;38.17;99529.09;5548548;32;33824;-57
2022/04/06 14:51:39;;;;;;;11.25;5.90;;;;;;;19.35;36.32;99517.94;5549521;32;33820;-57
2022/04/06 14:54:42;;;;;;;10.20;5.15;;;;;;;19.37;37.60;99516.44;5549549;32;33649;-57
2022/04/06 14:57:45;;;;;;;12.85;4.97;;;;;;;19.50;39.73;99508.88;5549818;32;34281;-58
2022/04/06 15:00:48;;;;;;;11.07;6.22;;;;;;;19.43;39.94;99501.38;5549305;32;34351;-57
2022/04/06 15:03:50;;;;;;;10.02;7.32;;;;;;;19.38;38.50;99500.91;5549453;32;34299;-57
2022/04/06 15:06:53;;;;;;;10.88;6.72;;;;;;;19.40;36.85;99502.12;5549195;32;34418;-57
2022/04/06 15:09:55;;;;;;;10.02;5.43;;;;;;;19.45;38.35;99492.88;5549559;32;33594;-58
2022/04/06 15:12:59;;;;;;;10.98;6.53;;;;;;;19.35;40.13;99493.47;5549538;32;33237;-57
2022/04/06 15:16:02;;;;;;;10.40;6.37;;;;;;;19.28;38.92;99482.50;5549344;32;34278;-57
